createdAt,value
2019-05-02T00:02:28.721Z,4.40
2019-05-02T00:04:55.920Z,4.33
2019-05-02T00:07:26.280Z,4.00
2019-05-02T00:10:26.975Z,3.87
2019-05-02T00:12:56.117Z,4.03
2019-05-02T00:15:25.943Z,3.90
2019-05-02T00:17:56.798Z,4.10
2019-05-02T00:20:27.111Z,4.00
2019-05-02T00:22:56.441Z,3.97
2019-05-02T00:25:25.545Z,3.83
2019-05-02T00:28:14.091Z,4.27
2019-05-02T00:30:43.230Z,4.40
2019-05-02T00:33:47.977Z,4.60
2019-05-02T00:36:31.392Z,4.00
2019-05-02T00:39:13.802Z,4.20
2019-05-02T00:41:44.947Z,4.43
2019-05-02T00:44:14.126Z,4.37
2019-05-02T00:46:43.411Z,5.20
2019-05-02T00:49:12.555Z,5.50
2019-05-02T00:51:41.752Z,5.83
2019-05-02T00:54:11.448Z,6.07
2019-05-02T00:56:59.914Z,6.30
2019-05-02T00:59:29.298Z,6.43
2019-05-02T01:02:07.240Z,6.30
2019-05-02T01:04:38.481Z,6.80
2019-05-02T01:10:29.368Z,7.00
2019-05-02T01:13:04.529Z,7.77
2019-05-02T01:15:29.933Z,7.13
2019-05-02T01:18:01.040Z,7.97
2019-05-02T01:20:29.964Z,7.80
2019-05-02T01:22:59.135Z,8.20
2019-05-02T01:25:47.490Z,8.57
2019-05-02T01:28:49.291Z,8.33
2019-05-02T01:34:48.979Z,8.67
2019-05-02T01:38:17.616Z,8.70
2019-05-02T01:40:53.130Z,8.50
2019-05-02T01:44:26.353Z,8.90
2019-05-02T01:46:58.753Z,8.97
2019-05-02T01:49:52.084Z,9.60
2019-05-02T01:52:23.689Z,9.40
2019-05-02T01:54:52.947Z,9.70
2019-05-02T01:57:22.078Z,10.00
2019-05-02T01:59:52.150Z,9.93
2019-05-02T02:02:21.349Z,10.43
2019-05-02T02:04:52.135Z,10.57
2019-05-02T02:08:21.397Z,10.87
2019-05-02T02:10:56.113Z,10.27
2019-05-02T02:14:18.381Z,10.90
2019-05-02T02:16:44.197Z,11.93
2019-05-02T02:19:19.038Z,11.80
2019-05-02T02:25:13.485Z,11.53
2019-05-02T02:27:42.905Z,12.30
2019-05-02T02:30:40.317Z,11.10
2019-05-02T02:33:10.136Z,11.50
2019-05-02T02:35:49.553Z,11.33
2019-05-02T02:38:18.132Z,12.53
2019-05-02T02:40:47.394Z,12.00
2019-05-02T02:43:33.382Z,12.07
2019-05-02T02:46:19.813Z,11.63
2019-05-02T02:48:49.330Z,12.10
2019-05-02T02:51:23.869Z,12.03
2019-05-02T02:53:49.617Z,12.87
2019-05-02T02:56:20.165Z,13.33
2019-05-02T02:58:49.220Z,13.67
2019-05-02T03:02:15.652Z,13.83
2019-05-02T03:04:46.433Z,14.93
2019-05-02T03:07:24.215Z,14.30
2019-05-02T03:14:27.949Z,14.00
2019-05-02T03:20:21.527Z,14.10
2019-05-02T03:22:50.941Z,13.97
2019-05-02T03:26:23.351Z,14.37
2019-05-02T03:28:58.665Z,13.97
2019-05-02T03:32:14.197Z,14.77
2019-05-02T03:34:47.488Z,15.80
2019-05-02T03:38:32.725Z,15.67
2019-05-02T03:44:26.235Z,15.93
2019-05-02T03:46:54.185Z,15.10
2019-05-02T03:49:40.831Z,15.70
2019-05-02T03:52:08.785Z,15.60
2019-05-02T03:54:48.972Z,15.03
2019-05-02T03:57:08.913Z,15.40
2019-05-02T03:59:41.468Z,16.13
2019-05-02T04:02:20.300Z,15.27
2019-05-02T04:04:54.370Z,15.80
2019-05-02T04:08:21.354Z,15.77
2019-05-02T04:11:26.067Z,16.20
2019-05-02T04:13:58.223Z,15.77
2019-05-02T04:16:29.145Z,16.37
2019-05-02T04:18:59.213Z,16.13
2019-05-02T04:21:28.434Z,16.43
2019-05-02T04:24:07.558Z,17.10
2019-05-02T04:26:29.240Z,16.57
2019-05-02T04:29:24.737Z,16.50
2019-05-02T04:35:19.604Z,17.27
2019-05-02T04:38:01.600Z,15.87
2019-05-02T04:40:35.162Z,16.77
2019-05-02T04:43:10.153Z,15.90
2019-05-02T04:45:50.986Z,15.60
2019-05-02T04:51:10.320Z,15.60
2019-05-02T04:53:36.706Z,15.93
2019-05-02T04:56:06.881Z,15.47
2019-05-02T04:58:37.165Z,15.00
2019-05-02T05:04:05.427Z,15.13
2019-05-02T05:06:34.317Z,14.43
2019-05-02T05:09:15.276Z,14.67
2019-05-02T05:11:44.291Z,14.37
2019-05-02T05:14:14.767Z,14.30
2019-05-02T05:16:45.365Z,14.43
2019-05-02T05:20:00.215Z,14.33
2019-05-02T05:22:29.416Z,13.53
2019-05-02T05:25:04.715Z,13.77
2019-05-02T05:27:33.878Z,15.17
2019-05-02T05:30:28.316Z,15.10
2019-05-02T05:45:13.625Z,13.40
2019-05-02T05:47:42.393Z,13.37
2019-05-02T05:50:11.707Z,13.47
2019-05-02T05:52:42.542Z,13.13
2019-05-02T06:02:56.263Z,14.03
2019-05-02T06:05:27.611Z,13.87
2019-05-02T06:08:09.482Z,12.80
2019-05-02T06:10:39.020Z,12.80
2019-05-02T06:13:59.605Z,12.87
2019-05-02T06:16:20.041Z,12.40
2019-05-02T06:18:49.674Z,13.27
2019-05-02T06:21:18.679Z,12.67
2019-05-02T06:23:47.573Z,13.73
2019-05-02T06:29:06.874Z,12.80
2019-05-02T06:31:38.244Z,13.13
2019-05-02T06:34:08.310Z,13.27
2019-05-02T06:36:38.118Z,13.13
2019-05-02T06:39:08.997Z,13.10
2019-05-02T06:41:37.907Z,13.33
2019-05-02T06:44:10.378Z,12.20
2019-05-02T06:46:59.257Z,13.47
2019-05-02T06:49:56.119Z,12.47
2019-05-02T06:52:21.512Z,11.43
2019-05-02T06:54:54.062Z,12.07
2019-05-02T06:58:08.177Z,12.10
2019-05-02T07:00:56.002Z,11.83
2019-05-02T07:03:10.278Z,12.20
2019-05-02T07:05:39.358Z,12.17
2019-05-02T07:08:52.909Z,11.87
2019-05-02T07:11:23.430Z,11.23
2019-05-02T07:14:12.528Z,11.30
2019-05-02T07:17:07.689Z,11.07
2019-05-02T07:19:37.954Z,11.47
2019-05-02T07:22:06.926Z,10.93
2019-05-02T07:24:36.054Z,11.20
2019-05-02T07:27:05.070Z,10.57
2019-05-02T07:29:34.002Z,10.10
2019-05-02T07:32:02.788Z,11.13
2019-05-02T07:34:31.660Z,10.13
2019-05-02T07:37:03.703Z,10.53
2019-05-02T07:39:42.264Z,9.57
2019-05-02T07:42:11.169Z,10.17
2019-05-02T07:44:40.784Z,9.23
2019-05-02T07:47:09.615Z,10.20
2019-05-02T07:49:43.961Z,9.50
2019-05-02T07:52:12.772Z,9.80
2019-05-02T07:54:41.572Z,10.50
2019-05-02T07:57:10.748Z,9.80
2019-05-02T07:59:39.725Z,9.07
2019-05-02T08:02:31.795Z,9.57
2019-05-02T08:05:00.921Z,9.13
2019-05-02T08:07:37.440Z,9.33
2019-05-02T08:10:07.067Z,8.57
2019-05-02T08:12:36.020Z,9.47
2019-05-02T08:15:07.375Z,10.37
2019-05-02T08:17:36.391Z,10.73
2019-05-02T08:20:08.565Z,10.97
2019-05-02T08:22:55.179Z,10.70
2019-05-02T08:25:24.517Z,10.60
2019-05-02T08:28:04.538Z,10.57
2019-05-02T08:30:40.490Z,10.13
2019-05-02T11:28:07.300Z,10.13
2019-05-02T11:31:01.503Z,10.77
2019-05-02T11:33:27.725Z,11.43
2019-05-02T11:35:59.680Z,10.70
2019-05-02T11:38:47.018Z,10.63
2019-05-02T11:41:09.605Z,10.93
2019-05-02T11:43:42.433Z,10.17
2019-05-02T11:47:03.832Z,10.17
2019-05-02T11:49:32.929Z,10.63
2019-05-02T11:52:04.535Z,10.07
2019-05-02T11:54:32.630Z,10.97
2019-05-02T11:57:22.737Z,11.17
2019-05-02T11:59:52.110Z,10.87
2019-05-02T12:02:58.142Z,11.13
2019-05-02T12:05:49.514Z,11.27
2019-05-02T12:08:28.277Z,11.17
2019-05-02T12:10:57.272Z,11.57
2019-05-02T12:13:26.246Z,11.33
2019-05-02T12:15:55.170Z,11.40
2019-05-02T12:18:24.220Z,11.53
2019-05-02T12:20:53.023Z,11.53
2019-05-02T12:26:17.739Z,11.10
2019-05-02T12:28:46.689Z,10.63
2019-05-02T12:31:26.463Z,10.93
2019-05-02T12:33:55.546Z,10.60
2019-05-02T12:36:24.841Z,10.77
2019-05-02T12:38:54.089Z,9.97
2019-05-02T12:41:42.620Z,10.70
2019-05-02T12:44:36.839Z,9.83
2019-05-02T12:47:06.487Z,10.73
2019-05-02T12:49:35.310Z,10.07
2019-05-02T12:52:04.217Z,10.27
2019-05-02T12:54:41.957Z,10.60
2019-05-02T12:57:12.473Z,11.23
2019-05-02T12:59:41.747Z,10.63
2019-05-02T13:02:52.516Z,10.40
2019-05-02T13:06:02.979Z,11.57
2019-05-02T13:08:34.515Z,10.30
2019-05-02T13:11:36.911Z,10.90
2019-05-02T13:14:32.616Z,11.10
2019-05-02T13:17:05.538Z,10.50
2019-05-02T13:22:41.974Z,10.73
2019-05-02T13:25:14.221Z,9.90
2019-05-02T13:27:47.773Z,10.77
2019-05-02T13:33:34.394Z,10.30
2019-05-02T13:36:02.567Z,9.63
2019-05-02T13:38:32.942Z,9.57
2019-05-02T13:41:02.609Z,8.53
2019-05-02T13:46:26.816Z,8.50
2019-05-02T13:48:56.265Z,8.30
2019-05-02T13:52:58.049Z,8.63
2019-05-02T13:55:31.819Z,7.40
2019-05-02T13:58:11.874Z,7.83
2019-05-02T14:00:45.606Z,7.40
2019-05-02T14:03:14.714Z,6.67
2019-05-02T14:54:07.925Z,5.17
2019-05-02T14:56:55.099Z,5.40
2019-05-02T14:59:24.102Z,5.13
2019-05-02T15:05:34.847Z,5.47
2019-05-02T15:08:06.767Z,5.67
2019-05-02T15:10:38.794Z,5.40
2019-05-02T15:13:04.934Z,6.60
2019-05-02T15:15:40.717Z,6.47
2019-05-02T15:18:07.873Z,5.87
2019-05-02T15:20:38.901Z,6.27
2019-05-02T15:23:19.604Z,7.17
2019-05-02T15:26:34.976Z,6.53
2019-05-02T15:42:28.944Z,6.50
2019-05-02T15:45:05.751Z,6.70
2019-05-02T17:22:41.457Z,3.00
2019-05-02T17:25:34.700Z,2.40
2019-05-02T17:37:34.770Z,2.83
2019-05-02T17:44:07.192Z,2.50
2019-05-02T18:01:04.884Z,2.90
2019-05-02T18:03:52.275Z,2.93
2019-05-02T18:06:32.890Z,2.93
2019-05-02T18:09:06.267Z,2.93
2019-05-02T18:11:38.818Z,3.00
2019-05-02T19:18:26.141Z,2.67
2019-05-02T20:06:27.133Z,2.10
2019-05-02T20:09:14.706Z,2.00
2019-05-02T20:59:21.860Z,2.10
2019-05-02T21:03:02.971Z,1.80
2019-05-02T21:05:39.139Z,2.00
2019-05-02T21:09:21.781Z,2.10
2019-05-02T21:12:10.314Z,1.90
2019-05-02T21:14:41.571Z,1.80
2019-05-02T21:27:46.797Z,1.70
2019-05-02T21:30:25.128Z,1.90
2019-05-02T21:32:56.119Z,1.77
2019-05-02T21:35:25.330Z,1.60
2019-05-02T21:37:54.442Z,1.40
2019-05-02T21:47:22.493Z,1.77
2019-05-02T21:50:58.854Z,2.00
2019-05-02T21:53:39.021Z,1.73
2019-05-02T21:56:36.612Z,1.43
2019-05-02T21:59:07.569Z,1.60
2019-05-02T22:03:04.384Z,1.67
2019-05-02T22:06:44.027Z,2.10
2019-05-02T22:10:26.890Z,1.70
2019-05-02T22:12:56.005Z,1.50
2019-05-02T22:16:15.604Z,1.33
2019-05-02T22:18:44.840Z,1.80
2019-05-02T22:22:24.617Z,1.80
2019-05-02T22:24:34.439Z,1.60
2019-05-02T22:27:06.697Z,1.93
2019-05-02T22:29:35.806Z,2.03
2019-05-02T22:32:54.350Z,1.40
2019-05-02T22:35:23.587Z,1.80
2019-05-02T22:37:54.443Z,1.90
2019-05-02T22:40:23.502Z,1.97
2019-05-02T22:42:52.594Z,1.60
2019-05-02T22:45:21.875Z,1.37
2019-05-02T22:48:07.008Z,1.60
2019-05-02T22:50:36.322Z,1.60
2019-05-02T22:53:05.389Z,2.10
2019-05-02T22:55:34.600Z,1.87
2019-05-02T22:58:03.810Z,1.67
2019-05-02T23:00:33.109Z,1.70
2019-05-02T23:03:02.414Z,1.43
2019-05-02T23:05:34.270Z,1.97
2019-05-02T23:08:02.923Z,1.90
2019-05-02T23:10:32.692Z,2.00
2019-05-02T23:13:37.207Z,2.10
2019-05-02T23:16:06.352Z,1.50
2019-05-02T23:18:35.504Z,1.70
2019-05-02T23:21:04.947Z,1.83
2019-05-02T23:23:34.327Z,1.60
2019-05-02T23:26:59.067Z,1.80
2019-05-02T23:29:28.682Z,1.87
2019-05-02T23:31:57.853Z,1.70
2019-05-02T23:34:27.054Z,1.90
2019-05-02T23:36:56.384Z,1.90
2019-05-02T23:39:43.674Z,1.77
2019-05-02T23:42:13.530Z,1.90
2019-05-02T23:44:42.815Z,1.70
2019-05-02T23:47:12.094Z,1.80
2019-05-02T23:49:42.717Z,1.60
2019-05-02T23:52:11.867Z,2.70
2019-05-02T23:54:50.117Z,1.57
2019-05-02T23:57:12.315Z,1.67
2019-05-02T23:59:42.437Z,1.40
